sensor_id;sensor_type;location;lat;lon;timestamp;P1;durP1;ratioP1;P2;durP2;ratioP2
78336;SDS011;67610;51.588;7.002;2023-04-01T00:00:18;4.38;;;1.80;;
78336;SDS011;67610;51.588;7.002;2023-04-01T00:02:43;6.05;;;2.00;;
78336;SDS011;67610;51.588;7.002;2023-04-01T00:05:09;3.47;;;1.70;;
78336;SDS011;67610;51.588;7.002;2023-04-01T00:07:35;3.63;;;1.70;;
78336;SDS011;67610;51.588;7.002;2023-04-01T00:10:02;3.15;;;1.60;;
78336;SDS011;67610;51.588;7.002;2023-04-01T00:12:28;4.25;;;1.90;;
78336;SDS011;67610;51.588;7.002;2023-04-01T00:14:54;5.75;;;2.15;;
78336;SDS011;67610;51.588;7.002;2023-04-01T00:17:20;6.43;;;2.08;;
78336;SDS011;67610;51.588;7.002;2023-04-01T00:19:45;5.43;;;1.90;;
78336;SDS011;67610;51.588;7.002;2023-04-01T00:22:10;4.53;;;2.08;;
78336;SDS011;67610;51.588;7.002;2023-04-01T00:24:37;7.82;;;2.33;;
78336;SDS011;67610;51.588;7.002;2023-04-01T00:27:03;4.05;;;2.00;;
78336;SDS011;67610;51.588;7.002;2023-04-01T00:29:28;3.50;;;1.90;;
78336;SDS011;67610;51.588;7.002;2023-04-01T00:31:56;3.67;;;1.80;;
78336;SDS011;67610;51.588;7.002;2023-04-01T00:34:22;3.70;;;1.90;;
78336;SDS011;67610;51.588;7.002;2023-04-01T00:36:48;6.53;;;2.00;;
78336;SDS011;67610;51.588;7.002;2023-04-01T00:39:15;7.28;;;1.90;;
78336;SDS011;67610;51.588;7.002;2023-04-01T00:41:40;6.00;;;1.90;;
78336;SDS011;67610;51.588;7.002;2023-04-01T00:46:43;4.85;;;2.00;;
78336;SDS011;67610;51.588;7.002;2023-04-01T00:49:09;4.28;;;2.10;;
78336;SDS011;67610;51.588;7.002;2023-04-01T00:51:34;4.20;;;2.08;;
78336;SDS011;67610;51.588;7.002;2023-04-01T00:54:03;4.57;;;2.13;;
78336;SDS011;67610;51.588;7.002;2023-04-01T00:56:34;4.25;;;2.00;;
78336;SDS011;67610;51.588;7.002;2023-04-01T00:59:04;3.95;;;2.28;;
78336;SDS011;67610;51.588;7.002;2023-04-01T01:01:36;3.33;;;2.13;;
78336;SDS011;67610;51.588;7.002;2023-04-01T01:04:01;4.38;;;1.90;;
78336;SDS011;67610;51.588;7.002;2023-04-01T01:12:13;4.53;;;2.10;;
78336;SDS011;67610;51.588;7.002;2023-04-01T01:14:58;4.03;;;2.45;;
78336;SDS011;67610;51.588;7.002;2023-04-01T01:28:33;4.40;;;2.03;;
78336;SDS011;67610;51.588;7.002;2023-04-01T01:34:11;3.60;;;2.05;;
78336;SDS011;67610;51.588;7.002;2023-04-01T01:36:38;4.03;;;1.80;;
78336;SDS011;67610;51.588;7.002;2023-04-01T01:39:07;2.92;;;1.80;;
78336;SDS011;67610;51.588;7.002;2023-04-01T01:41:35;4.47;;;1.98;;
78336;SDS011;67610;51.588;7.002;2023-04-01T01:44:03;3.20;;;1.85;;
78336;SDS011;67610;51.588;7.002;2023-04-01T01:46:32;3.65;;;1.90;;
78336;SDS011;67610;51.588;7.002;2023-04-01T01:48:58;3.90;;;1.85;;
78336;SDS011;67610;51.588;7.002;2023-04-01T01:51:25;4.35;;;1.80;;
78336;SDS011;67610;51.588;7.002;2023-04-01T01:53:52;4.32;;;1.80;;
78336;SDS011;67610;51.588;7.002;2023-04-01T01:56:18;2.40;;;1.50;;
78336;SDS011;67610;51.588;7.002;2023-04-01T01:58:48;3.97;;;2.03;;
78336;SDS011;67610;51.588;7.002;2023-04-01T02:01:20;3.97;;;1.88;;
78336;SDS011;67610;51.588;7.002;2023-04-01T02:03:49;3.08;;;1.95;;
78336;SDS011;67610;51.588;7.002;2023-04-01T02:06:19;3.80;;;1.75;;
78336;SDS011;67610;51.588;7.002;2023-04-01T02:08:51;4.25;;;2.10;;
78336;SDS011;67610;51.588;7.002;2023-04-01T02:11:28;2.80;;;1.55;;
78336;SDS011;67610;51.588;7.002;2023-04-01T02:16:40;2.83;;;1.83;;
78336;SDS011;67610;51.588;7.002;2023-04-01T02:19:12;3.15;;;1.60;;
78336;SDS011;67610;51.588;7.002;2023-04-01T02:21:38;3.97;;;1.70;;
78336;SDS011;67610;51.588;7.002;2023-04-01T02:24:07;3.38;;;1.67;;
78336;SDS011;67610;51.588;7.002;2023-04-01T02:26:36;3.05;;;2.00;;
78336;SDS011;67610;51.588;7.002;2023-04-01T02:29:01;2.95;;;1.60;;
78336;SDS011;67610;51.588;7.002;2023-04-01T02:31:30;3.97;;;1.70;;
78336;SDS011;67610;51.588;7.002;2023-04-01T02:33:57;5.28;;;2.03;;
78336;SDS011;67610;51.588;7.002;2023-04-01T02:36:23;3.10;;;1.88;;
78336;SDS011;67610;51.588;7.002;2023-04-01T02:38:48;5.50;;;1.90;;
78336;SDS011;67610;51.588;7.002;2023-04-01T02:41:15;3.00;;;2.00;;
78336;SDS011;67610;51.588;7.002;2023-04-01T02:43:40;4.95;;;1.90;;
78336;SDS011;67610;51.588;7.002;2023-04-01T02:46:05;3.58;;;2.10;;
78336;SDS011;67610;51.588;7.002;2023-04-01T02:48:31;3.75;;;2.20;;
78336;SDS011;67610;51.588;7.002;2023-04-01T02:50:56;5.15;;;2.33;;
78336;SDS011;67610;51.588;7.002;2023-04-01T02:53:22;3.80;;;2.00;;
78336;SDS011;67610;51.588;7.002;2023-04-01T02:55:47;5.30;;;2.05;;
78336;SDS011;67610;51.588;7.002;2023-04-01T02:58:15;2.55;;;1.88;;
78336;SDS011;67610;51.588;7.002;2023-04-01T03:00:41;5.55;;;2.40;;
78336;SDS011;67610;51.588;7.002;2023-04-01T03:03:06;6.40;;;2.58;;
78336;SDS011;67610;51.588;7.002;2023-04-01T03:05:32;4.63;;;2.45;;
78336;SDS011;67610;51.588;7.002;2023-04-01T03:07:57;4.80;;;2.20;;
78336;SDS011;67610;51.588;7.002;2023-04-01T03:10:22;4.05;;;2.00;;
78336;SDS011;67610;51.588;7.002;2023-04-01T03:12:48;4.70;;;2.15;;
78336;SDS011;67610;51.588;7.002;2023-04-01T03:15:13;3.70;;;2.03;;
78336;SDS011;67610;51.588;7.002;2023-04-01T03:17:40;3.13;;;2.08;;
78336;SDS011;67610;51.588;7.002;2023-04-01T03:20:06;6.88;;;2.50;;
78336;SDS011;67610;51.588;7.002;2023-04-01T03:22:33;4.43;;;2.28;;
78336;SDS011;67610;51.588;7.002;2023-04-01T03:25:00;4.53;;;2.40;;
78336;SDS011;67610;51.588;7.002;2023-04-01T03:27:26;5.32;;;1.98;;
78336;SDS011;67610;51.588;7.002;2023-04-01T03:29:51;4.38;;;2.10;;
78336;SDS011;67610;51.588;7.002;2023-04-01T03:32:17;3.80;;;2.10;;
78336;SDS011;67610;51.588;7.002;2023-04-01T03:34:42;2.45;;;1.63;;
78336;SDS011;67610;51.588;7.002;2023-04-01T03:37:07;3.42;;;1.88;;
78336;SDS011;67610;51.588;7.002;2023-04-01T03:39:33;8.80;;;2.28;;
78336;SDS011;67610;51.588;7.002;2023-04-01T03:41:58;4.07;;;2.15;;
78336;SDS011;67610;51.588;7.002;2023-04-01T03:44:23;5.35;;;2.10;;
78336;SDS011;67610;51.588;7.002;2023-04-01T03:46:49;3.72;;;2.00;;
78336;SDS011;67610;51.588;7.002;2023-04-01T03:49:15;3.97;;;2.10;;
78336;SDS011;67610;51.588;7.002;2023-04-01T03:51:41;4.15;;;2.03;;
78336;SDS011;67610;51.588;7.002;2023-04-01T03:54:08;4.40;;;2.28;;
78336;SDS011;67610;51.588;7.002;2023-04-01T03:56:34;4.25;;;2.72;;
78336;SDS011;67610;51.588;7.002;2023-04-01T03:59:01;4.47;;;2.60;;
78336;SDS011;67610;51.588;7.002;2023-04-01T04:01:29;6.05;;;2.63;;
78336;SDS011;67610;51.588;7.002;2023-04-01T04:03:54;5.93;;;2.72;;
78336;SDS011;67610;51.588;7.002;2023-04-01T04:06:20;4.43;;;2.58;;
78336;SDS011;67610;51.588;7.002;2023-04-01T04:08:46;4.25;;;2.70;;
78336;SDS011;67610;51.588;7.002;2023-04-01T04:11:11;7.43;;;3.03;;
78336;SDS011;67610;51.588;7.002;2023-04-01T04:13:37;7.47;;;3.25;;
78336;SDS011;67610;51.588;7.002;2023-04-01T04:16:03;4.88;;;2.72;;
78336;SDS011;67610;51.588;7.002;2023-04-01T04:18:28;5.30;;;3.10;;
78336;SDS011;67610;51.588;7.002;2023-04-01T04:20:54;6.07;;;3.40;;
78336;SDS011;67610;51.588;7.002;2023-04-01T04:23:20;4.55;;;3.53;;
78336;SDS011;67610;51.588;7.002;2023-04-01T04:28:21;5.05;;;2.80;;
78336;SDS011;67610;51.588;7.002;2023-04-01T04:30:47;5.30;;;2.50;;
78336;SDS011;67610;51.588;7.002;2023-04-01T04:33:12;6.40;;;3.28;;
78336;SDS011;67610;51.588;7.002;2023-04-01T04:35:38;5.57;;;3.03;;
78336;SDS011;67610;51.588;7.002;2023-04-01T04:38:03;4.45;;;3.05;;
78336;SDS011;67610;51.588;7.002;2023-04-01T04:40:28;5.45;;;3.00;;
78336;SDS011;67610;51.588;7.002;2023-04-01T04:42:54;4.43;;;2.92;;
78336;SDS011;67610;51.588;7.002;2023-04-01T04:45:19;5.35;;;3.30;;
78336;SDS011;67610;51.588;7.002;2023-04-01T04:47:45;6.35;;;3.60;;
78336;SDS011;67610;51.588;7.002;2023-04-01T04:50:10;5.68;;;3.00;;
78336;SDS011;67610;51.588;7.002;2023-04-01T04:52:36;5.53;;;3.40;;
78336;SDS011;67610;51.588;7.002;2023-04-01T04:55:02;5.03;;;2.92;;
78336;SDS011;67610;51.588;7.002;2023-04-01T04:57:27;5.72;;;3.40;;
78336;SDS011;67610;51.588;7.002;2023-04-01T04:59:53;5.65;;;3.17;;
78336;SDS011;67610;51.588;7.002;2023-04-01T05:02:18;4.90;;;3.25;;
78336;SDS011;67610;51.588;7.002;2023-04-01T05:04:44;6.53;;;2.90;;
78336;SDS011;67610;51.588;7.002;2023-04-01T05:07:09;4.32;;;2.95;;
78336;SDS011;67610;51.588;7.002;2023-04-01T05:09:34;5.53;;;3.53;;
78336;SDS011;67610;51.588;7.002;2023-04-01T05:12:00;5.72;;;2.80;;
78336;SDS011;67610;51.588;7.002;2023-04-01T05:14:25;5.43;;;3.10;;
78336;SDS011;67610;51.588;7.002;2023-04-01T05:16:51;4.28;;;2.90;;
78336;SDS011;67610;51.588;7.002;2023-04-01T05:19:16;6.57;;;2.97;;
78336;SDS011;67610;51.588;7.002;2023-04-01T05:21:41;5.32;;;2.80;;
78336;SDS011;67610;51.588;7.002;2023-04-01T05:24:07;5.13;;;2.95;;
78336;SDS011;67610;51.588;7.002;2023-04-01T05:26:34;4.75;;;2.80;;
78336;SDS011;67610;51.588;7.002;2023-04-01T05:28:59;5.25;;;2.65;;
78336;SDS011;67610;51.588;7.002;2023-04-01T05:31:25;4.30;;;2.60;;
78336;SDS011;67610;51.588;7.002;2023-04-01T05:33:50;4.03;;;2.78;;
78336;SDS011;67610;51.588;7.002;2023-04-01T05:36:16;3.78;;;2.58;;
78336;SDS011;67610;51.588;7.002;2023-04-01T05:38:42;5.03;;;2.60;;
78336;SDS011;67610;51.588;7.002;2023-04-01T05:41:09;4.03;;;2.58;;
78336;SDS011;67610;51.588;7.002;2023-04-01T05:43:38;4.50;;;2.92;;
78336;SDS011;67610;51.588;7.002;2023-04-01T05:46:04;3.65;;;2.60;;
78336;SDS011;67610;51.588;7.002;2023-04-01T05:48:30;4.60;;;2.65;;
78336;SDS011;67610;51.588;7.002;2023-04-01T05:50:55;6.22;;;2.70;;
78336;SDS011;67610;51.588;7.002;2023-04-01T05:53:21;4.10;;;2.45;;
78336;SDS011;67610;51.588;7.002;2023-04-01T05:55:47;4.38;;;2.55;;
78336;SDS011;67610;51.588;7.002;2023-04-01T05:58:13;4.45;;;2.92;;
78336;SDS011;67610;51.588;7.002;2023-04-01T06:00:38;6.10;;;2.85;;
78336;SDS011;67610;51.588;7.002;2023-04-01T06:03:03;4.75;;;2.85;;
78336;SDS011;67610;51.588;7.002;2023-04-01T06:05:30;4.72;;;2.88;;
78336;SDS011;67610;51.588;7.002;2023-04-01T06:08:05;4.13;;;2.70;;
78336;SDS011;67610;51.588;7.002;2023-04-01T06:10:45;7.47;;;3.30;;
78336;SDS011;67610;51.588;7.002;2023-04-01T06:19:15;5.15;;;3.20;;
78336;SDS011;67610;51.588;7.002;2023-04-01T06:22:17;4.55;;;3.20;;
78336;SDS011;67610;51.588;7.002;2023-04-01T06:31:02;4.70;;;3.05;;
78336;SDS011;67610;51.588;7.002;2023-04-01T06:41:53;5.95;;;2.85;;
78336;SDS011;67610;51.588;7.002;2023-04-01T06:44:40;6.43;;;3.40;;
78336;SDS011;67610;51.588;7.002;2023-04-01T06:47:31;5.78;;;3.40;;
78336;SDS011;67610;51.588;7.002;2023-04-01T06:55:27;5.15;;;3.13;;
78336;SDS011;67610;51.588;7.002;2023-04-01T06:58:03;5.00;;;3.05;;
78336;SDS011;67610;51.588;7.002;2023-04-01T07:00:40;4.60;;;2.80;;
78336;SDS011;67610;51.588;7.002;2023-04-01T07:03:16;4.97;;;3.08;;
78336;SDS011;67610;51.588;7.002;2023-04-01T07:05:51;3.95;;;2.72;;
78336;SDS011;67610;51.588;7.002;2023-04-01T07:08:23;5.30;;;3.25;;
78336;SDS011;67610;51.588;7.002;2023-04-01T07:11:05;4.95;;;3.50;;
78336;SDS011;67610;51.588;7.002;2023-04-01T07:19:05;4.82;;;3.08;;
78336;SDS011;67610;51.588;7.002;2023-04-01T07:21:34;5.22;;;3.22;;
78336;SDS011;67610;51.588;7.002;2023-04-01T07:24:06;4.75;;;3.13;;
78336;SDS011;67610;51.588;7.002;2023-04-01T07:26:40;5.68;;;3.08;;
78336;SDS011;67610;51.588;7.002;2023-04-01T07:29:13;4.65;;;3.00;;
78336;SDS011;67610;51.588;7.002;2023-04-01T07:34:25;4.82;;;3.33;;
78336;SDS011;67610;51.588;7.002;2023-04-01T07:40:10;5.47;;;3.17;;
78336;SDS011;67610;51.588;7.002;2023-04-01T07:48:23;5.88;;;3.38;;
78336;SDS011;67610;51.588;7.002;2023-04-01T07:51:03;6.32;;;3.78;;
78336;SDS011;67610;51.588;7.002;2023-04-01T07:53:42;7.22;;;3.95;;
78336;SDS011;67610;51.588;7.002;2023-04-01T07:56:34;7.63;;;3.95;;
78336;SDS011;67610;51.588;7.002;2023-04-01T08:01:47;7.68;;;4.50;;
78336;SDS011;67610;51.588;7.002;2023-04-01T08:09:44;7.53;;;4.00;;
78336;SDS011;67610;51.588;7.002;2023-04-01T08:12:43;7.28;;;4.63;;
78336;SDS011;67610;51.588;7.002;2023-04-01T08:20:58;8.15;;;4.40;;
78336;SDS011;67610;51.588;7.002;2023-04-01T08:23:27;8.88;;;4.88;;
78336;SDS011;67610;51.588;7.002;2023-04-01T08:28:51;6.53;;;4.25;;
78336;SDS011;67610;51.588;7.002;2023-04-01T08:34:10;8.27;;;4.85;;
78336;SDS011;67610;51.588;7.002;2023-04-01T08:36:46;8.88;;;5.00;;
78336;SDS011;67610;51.588;7.002;2023-04-01T08:39:21;7.25;;;4.28;;
78336;SDS011;67610;51.588;7.002;2023-04-01T08:42:00;7.18;;;4.38;;
78336;SDS011;67610;51.588;7.002;2023-04-01T08:53:06;7.95;;;4.20;;
78336;SDS011;67610;51.588;7.002;2023-04-01T09:07:11;8.10;;;4.00;;
78336;SDS011;67610;51.588;7.002;2023-04-01T09:09:53;8.45;;;4.25;;
78336;SDS011;67610;51.588;7.002;2023-04-01T09:15:37;7.38;;;4.25;;
78336;SDS011;67610;51.588;7.002;2023-04-01T09:23:43;8.30;;;4.18;;
78336;SDS011;67610;51.588;7.002;2023-04-01T09:26:28;7.60;;;3.90;;
78336;SDS011;67610;51.588;7.002;2023-04-01T09:32:12;6.35;;;3.70;;
78336;SDS011;67610;51.588;7.002;2023-04-01T09:34:55;6.00;;;3.65;;
78336;SDS011;67610;51.588;7.002;2023-04-01T09:37:35;6.20;;;3.60;;
78336;SDS011;67610;51.588;7.002;2023-04-01T09:41:14;6.13;;;3.47;;
78336;SDS011;67610;51.588;7.002;2023-04-01T09:43:06;5.03;;;3.22;;
78336;SDS011;67610;51.588;7.002;2023-04-01T09:45:41;6.40;;;3.63;;
78336;SDS011;67610;51.588;7.002;2023-04-01T09:53:56;5.75;;;3.60;;
78336;SDS011;67610;51.588;7.002;2023-04-01T09:59:57;6.70;;;3.63;;
78336;SDS011;67610;51.588;7.002;2023-04-01T10:10:42;6.65;;;3.58;;
78336;SDS011;67610;51.588;7.002;2023-04-01T10:18:40;5.40;;;3.33;;
78336;SDS011;67610;51.588;7.002;2023-04-01T10:30:13;4.75;;;2.58;;
78336;SDS011;67610;51.588;7.002;2023-04-01T10:33:06;4.43;;;2.85;;
78336;SDS011;67610;51.588;7.002;2023-04-01T10:35:49;4.63;;;2.75;;
78336;SDS011;67610;51.588;7.002;2023-04-01T10:41:22;5.35;;;2.78;;
78336;SDS011;67610;51.588;7.002;2023-04-01T10:49:46;5.85;;;2.88;;
78336;SDS011;67610;51.588;7.002;2023-04-01T11:13:40;4.25;;;2.40;;
78336;SDS011;67610;51.588;7.002;2023-04-01T11:16:38;5.32;;;3.30;;
78336;SDS011;67610;51.588;7.002;2023-04-01T11:34:13;5.72;;;3.00;;
78336;SDS011;67610;51.588;7.002;2023-04-01T11:42:13;4.97;;;3.03;;
78336;SDS011;67610;51.588;7.002;2023-04-01T11:50:18;4.30;;;2.50;;
78336;SDS011;67610;51.588;7.002;2023-04-01T11:53:02;5.22;;;2.70;;
78336;SDS011;67610;51.588;7.002;2023-04-01T11:58:23;5.85;;;3.10;;
78336;SDS011;67610;51.588;7.002;2023-04-01T12:04:38;4.47;;;2.72;;
78336;SDS011;67610;51.588;7.002;2023-04-01T12:28:54;6.53;;;4.05;;
78336;SDS011;67610;51.588;7.002;2023-04-01T12:31:29;6.80;;;4.10;;
78336;SDS011;67610;51.588;7.002;2023-04-01T12:45:15;6.28;;;3.63;;
78336;SDS011;67610;51.588;7.002;2023-04-01T12:48:01;7.07;;;3.78;;
78336;SDS011;67610;51.588;7.002;2023-04-01T12:59:16;5.65;;;3.17;;
78336;SDS011;67610;51.588;7.002;2023-04-01T13:10:25;4.90;;;2.67;;
78336;SDS011;67610;51.588;7.002;2023-04-01T13:15:52;5.05;;;2.60;;
78336;SDS011;67610;51.588;7.002;2023-04-01T13:29:52;4.38;;;2.47;;
78336;SDS011;67610;51.588;7.002;2023-04-01T13:35:34;4.18;;;2.78;;
78336;SDS011;67610;51.588;7.002;2023-04-01T13:38:17;4.50;;;2.55;;
78336;SDS011;67610;51.588;7.002;2023-04-01T13:55:23;5.85;;;3.00;;
78336;SDS011;67610;51.588;7.002;2023-04-01T14:00:42;6.05;;;2.83;;
78336;SDS011;67610;51.588;7.002;2023-04-01T14:24:35;6.60;;;3.67;;
78336;SDS011;67610;51.588;7.002;2023-04-01T14:27:26;6.38;;;3.40;;
78336;SDS011;67610;51.588;7.002;2023-04-01T14:30:48;6.85;;;4.10;;
78336;SDS011;67610;51.588;7.002;2023-04-01T14:33:01;6.05;;;3.85;;
78336;SDS011;67610;51.588;7.002;2023-04-01T14:35:47;7.55;;;4.00;;
78336;SDS011;67610;51.588;7.002;2023-04-01T14:38:47;7.53;;;3.60;;
78336;SDS011;67610;51.588;7.002;2023-04-01T14:41:32;6.75;;;3.90;;
78336;SDS011;67610;51.588;7.002;2023-04-01T14:44:18;6.78;;;4.22;;
78336;SDS011;67610;51.588;7.002;2023-04-01T14:50:02;6.05;;;4.20;;
78336;SDS011;67610;51.588;7.002;2023-04-01T14:52:32;7.68;;;5.10;;
78336;SDS011;67610;51.588;7.002;2023-04-01T14:55:01;9.68;;;5.07;;
78336;SDS011;67610;51.588;7.002;2023-04-01T14:57:44;8.18;;;5.05;;
78336;SDS011;67610;51.588;7.002;2023-04-01T15:00:52;8.45;;;5.43;;
78336;SDS011;67610;51.588;7.002;2023-04-01T15:03:24;10.70;;;5.75;;
78336;SDS011;67610;51.588;7.002;2023-04-01T15:08:32;9.65;;;5.63;;
78336;SDS011;67610;51.588;7.002;2023-04-01T15:11:18;8.30;;;5.32;;
78336;SDS011;67610;51.588;7.002;2023-04-01T15:13:51;8.43;;;5.28;;
78336;SDS011;67610;51.588;7.002;2023-04-01T15:19:00;8.30;;;5.20;;
78336;SDS011;67610;51.588;7.002;2023-04-01T15:24:40;8.10;;;4.57;;
78336;SDS011;67610;51.588;7.002;2023-04-01T15:27:29;6.72;;;4.18;;
78336;SDS011;67610;51.588;7.002;2023-04-01T15:36:02;7.68;;;4.60;;
78336;SDS011;67610;51.588;7.002;2023-04-01T15:55:44;4.22;;;2.95;;
78336;SDS011;67610;51.588;7.002;2023-04-01T16:01:07;4.13;;;2.83;;
78336;SDS011;67610;51.588;7.002;2023-04-01T16:06:47;4.63;;;3.10;;
78336;SDS011;67610;51.588;7.002;2023-04-01T16:21:21;6.10;;;3.47;;
78336;SDS011;67610;51.588;7.002;2023-04-01T16:24:04;5.75;;;3.50;;
78336;SDS011;67610;51.588;7.002;2023-04-01T16:26:39;5.88;;;2.90;;
78336;SDS011;67610;51.588;7.002;2023-04-01T16:29:25;5.55;;;3.10;;
78336;SDS011;67610;51.588;7.002;2023-04-01T16:32:31;4.53;;;2.95;;
78336;SDS011;67610;51.588;7.002;2023-04-01T16:37:33;4.85;;;3.13;;
78336;SDS011;67610;51.588;7.002;2023-04-01T16:40:24;4.60;;;2.85;;
78336;SDS011;67610;51.588;7.002;2023-04-01T16:43:06;6.03;;;2.90;;
78336;SDS011;67610;51.588;7.002;2023-04-01T16:45:40;5.53;;;3.55;;
78336;SDS011;67610;51.588;7.002;2023-04-01T16:48:14;4.80;;;3.30;;
78336;SDS011;67610;51.588;7.002;2023-04-01T16:53:19;4.78;;;3.00;;
78336;SDS011;67610;51.588;7.002;2023-04-01T16:58:34;4.75;;;3.05;;
78336;SDS011;67610;51.588;7.002;2023-04-01T17:01:16;5.07;;;3.45;;
78336;SDS011;67610;51.588;7.002;2023-04-01T17:04:00;4.85;;;3.00;;
78336;SDS011;67610;51.588;7.002;2023-04-01T17:06:48;4.38;;;3.17;;
78336;SDS011;67610;51.588;7.002;2023-04-01T17:12:02;5.20;;;3.33;;
78336;SDS011;67610;51.588;7.002;2023-04-01T17:20:53;5.65;;;3.10;;
78336;SDS011;67610;51.588;7.002;2023-04-01T17:29:03;5.47;;;3.47;;
78336;SDS011;67610;51.588;7.002;2023-04-01T17:34:18;5.05;;;3.42;;
78336;SDS011;67610;51.588;7.002;2023-04-01T17:36:58;5.68;;;3.85;;
78336;SDS011;67610;51.588;7.002;2023-04-01T17:39:29;4.60;;;3.22;;
78336;SDS011;67610;51.588;7.002;2023-04-01T17:42:09;5.90;;;3.60;;
78336;SDS011;67610;51.588;7.002;2023-04-01T17:47:55;6.03;;;4.05;;
78336;SDS011;67610;51.588;7.002;2023-04-01T17:55:43;5.20;;;3.50;;
78336;SDS011;67610;51.588;7.002;2023-04-01T18:11:54;6.18;;;3.80;;
78336;SDS011;67610;51.588;7.002;2023-04-01T18:19:51;6.35;;;3.70;;
78336;SDS011;67610;51.588;7.002;2023-04-01T18:23:20;4.68;;;3.20;;
78336;SDS011;67610;51.588;7.002;2023-04-01T18:25:34;5.57;;;3.80;;
78336;SDS011;67610;51.588;7.002;2023-04-01T18:28:16;6.32;;;3.50;;
78336;SDS011;67610;51.588;7.002;2023-04-01T18:33:31;4.63;;;2.97;;
78336;SDS011;67610;51.588;7.002;2023-04-01T18:38:53;4.18;;;2.67;;
78336;SDS011;67610;51.588;7.002;2023-04-01T18:41:25;3.65;;;2.60;;
78336;SDS011;67610;51.588;7.002;2023-04-01T18:44:07;3.80;;;2.63;;
78336;SDS011;67610;51.588;7.002;2023-04-01T18:46:41;3.80;;;2.70;;
78336;SDS011;67610;51.588;7.002;2023-04-01T18:49:17;3.70;;;2.42;;
78336;SDS011;67610;51.588;7.002;2023-04-01T18:54:41;3.50;;;2.40;;
78336;SDS011;67610;51.588;7.002;2023-04-01T18:57:14;3.10;;;2.20;;
78336;SDS011;67610;51.588;7.002;2023-04-01T19:02:25;2.88;;;2.20;;
78336;SDS011;67610;51.588;7.002;2023-04-01T19:05:38;2.85;;;2.20;;
78336;SDS011;67610;51.588;7.002;2023-04-01T19:22:13;2.90;;;2.20;;
78336;SDS011;67610;51.588;7.002;2023-04-01T19:27:18;4.25;;;2.20;;
78336;SDS011;67610;51.588;7.002;2023-04-01T19:30:07;3.85;;;2.50;;
78336;SDS011;67610;51.588;7.002;2023-04-01T19:35:22;3.65;;;2.30;;
78336;SDS011;67610;51.588;7.002;2023-04-01T19:37:57;3.30;;;2.38;;
78336;SDS011;67610;51.588;7.002;2023-04-01T19:40:37;3.67;;;2.70;;
78336;SDS011;67610;51.588;7.002;2023-04-01T19:43:08;2.75;;;2.03;;
78336;SDS011;67610;51.588;7.002;2023-04-01T19:59:21;3.33;;;2.35;;
78336;SDS011;67610;51.588;7.002;2023-04-01T20:04:34;3.28;;;2.30;;
78336;SDS011;67610;51.588;7.002;2023-04-01T20:09:53;4.00;;;2.70;;
78336;SDS011;67610;51.588;7.002;2023-04-01T20:12:28;3.75;;;2.90;;
78336;SDS011;67610;51.588;7.002;2023-04-01T20:17:45;3.63;;;2.60;;
78336;SDS011;67610;51.588;7.002;2023-04-01T20:22:51;3.10;;;2.40;;
78336;SDS011;67610;51.588;7.002;2023-04-01T20:28:05;3.65;;;2.22;;
78336;SDS011;67610;51.588;7.002;2023-04-01T20:36:06;3.95;;;2.45;;
78336;SDS011;67610;51.588;7.002;2023-04-01T20:45:04;2.85;;;2.20;;
78336;SDS011;67610;51.588;7.002;2023-04-01T20:50:21;3.35;;;2.30;;
78336;SDS011;67610;51.588;7.002;2023-04-01T20:52:57;3.13;;;2.10;;
78336;SDS011;67610;51.588;7.002;2023-04-01T20:55:29;3.90;;;2.30;;
78336;SDS011;67610;51.588;7.002;2023-04-01T21:00:49;3.00;;;2.20;;
78336;SDS011;67610;51.588;7.002;2023-04-01T21:19:54;4.90;;;2.70;;
78336;SDS011;67610;51.588;7.002;2023-04-01T21:25:39;4.35;;;2.42;;
78336;SDS011;67610;51.588;7.002;2023-04-01T21:31:05;3.58;;;2.30;;
78336;SDS011;67610;51.588;7.002;2023-04-01T21:33:42;5.07;;;3.15;;
78336;SDS011;67610;51.588;7.002;2023-04-01T21:36:42;3.90;;;2.75;;
78336;SDS011;67610;51.588;7.002;2023-04-01T21:39:32;3.40;;;2.45;;
78336;SDS011;67610;51.588;7.002;2023-04-01T21:52:38;4.05;;;2.97;;
78336;SDS011;67610;51.588;7.002;2023-04-01T22:01:31;3.83;;;2.60;;
78336;SDS011;67610;51.588;7.002;2023-04-01T22:12:09;3.90;;;2.70;;
78336;SDS011;67610;51.588;7.002;2023-04-01T22:20:31;3.75;;;2.67;;
78336;SDS011;67610;51.588;7.002;2023-04-01T22:25:45;3.20;;;2.30;;
78336;SDS011;67610;51.588;7.002;2023-04-01T22:28:29;4.22;;;2.70;;
78336;SDS011;67610;51.588;7.002;2023-04-01T22:31:01;3.55;;;2.53;;
78336;SDS011;67610;51.588;7.002;2023-04-01T22:38:49;3.60;;;2.60;;
78336;SDS011;67610;51.588;7.002;2023-04-01T22:46:56;3.70;;;2.50;;
78336;SDS011;67610;51.588;7.002;2023-04-01T22:49:38;4.32;;;3.10;;
78336;SDS011;67610;51.588;7.002;2023-04-01T22:55:13;4.07;;;3.08;;
78336;SDS011;67610;51.588;7.002;2023-04-01T22:57:50;4.65;;;2.78;;
78336;SDS011;67610;51.588;7.002;2023-04-01T23:05:41;5.05;;;3.13;;
78336;SDS011;67610;51.588;7.002;2023-04-01T23:11:02;4.45;;;3.03;;
78336;SDS011;67610;51.588;7.002;2023-04-01T23:14:13;4.60;;;2.75;;
78336;SDS011;67610;51.588;7.002;2023-04-01T23:16:39;5.63;;;2.90;;
78336;SDS011;67610;51.588;7.002;2023-04-01T23:21:49;4.05;;;2.75;;
78336;SDS011;67610;51.588;7.002;2023-04-01T23:29:28;3.50;;;2.40;;
78336;SDS011;67610;51.588;7.002;2023-04-01T23:31:58;4.28;;;2.90;;
78336;SDS011;67610;51.588;7.002;2023-04-01T23:34:27;3.63;;;2.60;;
78336;SDS011;67610;51.588;7.002;2023-04-01T23:37:12;3.90;;;2.70;;
78336;SDS011;67610;51.588;7.002;2023-04-01T23:39:45;4.05;;;2.67;;
78336;SDS011;67610;51.588;7.002;2023-04-01T23:42:23;4.07;;;2.65;;
78336;SDS011;67610;51.588;7.002;2023-04-01T23:44:57;3.95;;;2.67;;
78336;SDS011;67610;51.588;7.002;2023-04-01T23:49:55;3.40;;;2.45;;
78336;SDS011;67610;51.588;7.002;2023-04-01T23:52:27;3.53;;;2.42;;
78336;SDS011;67610;51.588;7.002;2023-04-01T23:54:59;3.95;;;2.45;;
78336;SDS011;67610;51.588;7.002;2023-04-01T23:57:37;3.38;;;2.30;;
